Bad Axe, MI

9:22 AM EDT on March 27, 2015 (GMT -0400)
Port Hope | | Change Station
CLOSE
Current Station
Airport
Location: Port Hope,
Elevation: 587 ft
Nearby Weather Stations
Active Advisory: Special Statement

Elev 587 ft 44.02 °N, 82.79 °W | Updated 31 minutes ago

Overcast
Overcast
21 °F
Feels Like 9 °F
N
13
Wind Variable Wind from North
Gusts 25 mph

Today
High -- | Low -- °F
--% Chance of Precip.
Yesterday
High -- | Low -- °F
Precip. -- in
7:22 AM 7:52 PM
First Quarter, 52% visible
Pressure 30.04 in
Visibility -9999.0 miles
Clouds
Windchill 9 °F
Dew Point 14 °F
Humidity 74%
Rainfall 0.01 in
Snow Depth Not available.
UV Not available.
Pollen 3.20 out of 12
Air Quality Not available.
Flu Activity Not available.
METAR KP58 271251Z AUTO 35011G22KT M06/M10 A3000 RMK AO1 SLP172 T10611100

More Conditions Fewer Conditions

Pressure 30.04 in
Visibility -9999.0 miles
Clouds
Windchill 9 °F
Dew Point 14 °F
Humidity 74%
Rainfall 0.01 in
Snow Depth Not available.
UV Not available.
Pollen 3.20 out of 12
Air Quality Not available.
Flu Activity Not available.
METAR KP58 271251Z AUTO 35011G22KT M06/M10 A3000 RMK AO1 SLP172 T10611100

More Conditions Fewer Conditions

10-Day Weather Forecast

Almanac

Astronomy

Mar. 27, 2015 Rise Set
Actual Time
Civil Twilight
Nautical Twilight
Astronomical Twilight
Moon
Length of Visible Light
Length of Day
Tomorrow will be .
, % of the Moon is Illuminated

Today's Extremes

State Highs State Lows

Community

WunderPhotos

Upload Photos

1,808,729 photos uploaded!

WunderBlogs® & News

Nearby

Air Quality

  Air Quality AQ Index Pollutant
Not available.

Snow Depth

Station Depth Elevation

Earthquake Activity

City Distance Mag. Time & Date
Minimum magnitude displayed is 2.5.

Coastal Water Temperatures

Place Temperature

Stations

Nearby Weather Stations

Station Location Temp. Windchill Dew Point Humidity Wind Precip. Elev Updated Type
                   
Special Statement
Statement as of 8:27 AM EDT on March 27, 2015

... Lake effect snow showers this morning...

Northerly winds of 15 to 30 mph off Lake Huron will continue to
produce snow showers this morning across the eastern thumb region.
The heaviest activity was headed toward Port Huron... where a quick
inch or two can be expected between now and noon... as visibilities
will drop quickly to half a mile or less in heavier snow showers.
Motorists should be prepared to encounter these rapid fluctuation
in visibilities and snow covered roads.


Sf